sensor_id;sensor_type;location;lat;lon;timestamp;temperature;humidity
69938;DHT22;57248;47.320;15.998;2023-09-19T00:00:28;17.84;96.51
69938;DHT22;57248;47.320;15.998;2023-09-19T00:03:00;17.85;96.64
69938;DHT22;57248;47.320;15.998;2023-09-19T00:05:37;17.81;97.05
69938;DHT22;57248;47.320;15.998;2023-09-19T00:08:10;17.87;96.75
69938;DHT22;57248;47.320;15.998;2023-09-19T00:10:42;17.93;96.54
69938;DHT22;57248;47.320;15.998;2023-09-19T00:13:14;17.85;97.19
69938;DHT22;57248;47.320;15.998;2023-09-19T00:15:47;17.90;96.88
69938;DHT22;57248;47.320;15.998;2023-09-19T00:18:22;17.97;96.43
69938;DHT22;57248;47.320;15.998;2023-09-19T00:20:58;17.95;96.13
69938;DHT22;57248;47.320;15.998;2023-09-19T00:23:30;17.95;96.09
69938;DHT22;57248;47.320;15.998;2023-09-19T00:26:05;17.94;96.20
69938;DHT22;57248;47.320;15.998;2023-09-19T00:28:39;17.95;95.76
69938;DHT22;57248;47.320;15.998;2023-09-19T00:31:08;17.97;96.31
69938;DHT22;57248;47.320;15.998;2023-09-19T00:33:40;17.90;97.17
69938;DHT22;57248;47.320;15.998;2023-09-19T00:36:12;17.87;97.49
69938;DHT22;57248;47.320;15.998;2023-09-19T00:38:51;17.93;97.10
69938;DHT22;57248;47.320;15.998;2023-09-19T00:41:24;17.94;96.53
69938;DHT22;57248;47.320;15.998;2023-09-19T00:43:56;18.00;96.98
69938;DHT22;57248;47.320;15.998;2023-09-19T00:46:28;18.00;96.72
69938;DHT22;57248;47.320;15.998;2023-09-19T00:49:08;17.93;97.26
69938;DHT22;57248;47.320;15.998;2023-09-19T00:51:42;17.81;97.88
69938;DHT22;57248;47.320;15.998;2023-09-19T00:54:17;17.83;97.75
69938;DHT22;57248;47.320;15.998;2023-09-19T00:56:50;17.85;97.43
69938;DHT22;57248;47.320;15.998;2023-09-19T00:59:22;17.83;97.38
69938;DHT22;57248;47.320;15.998;2023-09-19T01:01:56;17.88;97.16
69938;DHT22;57248;47.320;15.998;2023-09-19T01:04:22;17.87;97.59
69938;DHT22;57248;47.320;15.998;2023-09-19T01:06:54;17.93;97.00
69938;DHT22;57248;47.320;15.998;2023-09-19T01:09:27;17.87;97.25
69938;DHT22;57248;47.320;15.998;2023-09-19T01:12:01;17.83;97.72
69938;DHT22;57248;47.320;15.998;2023-09-19T01:14:46;17.81;97.92
69938;DHT22;57248;47.320;15.998;2023-09-19T01:17:27;17.88;97.28
69938;DHT22;57248;47.320;15.998;2023-09-19T01:20:30;17.97;95.36
69938;DHT22;57248;47.320;15.998;2023-09-19T01:23:18;17.91;97.13
69938;DHT22;57248;47.320;15.998;2023-09-19T01:26:17;17.88;97.28
69938;DHT22;57248;47.320;15.998;2023-09-19T01:29:13;17.88;97.04
69938;DHT22;57248;47.320;15.998;2023-09-19T01:31:49;17.91;96.76
69938;DHT22;57248;47.320;15.998;2023-09-19T01:34:21;17.95;95.32
69938;DHT22;57248;47.320;15.998;2023-09-19T01:36:47;17.93;95.47
69938;DHT22;57248;47.320;15.998;2023-09-19T01:39:18;17.94;92.61
69938;DHT22;57248;47.320;15.998;2023-09-19T01:42:04;17.94;91.91
69938;DHT22;57248;47.320;15.998;2023-09-19T01:47:28;17.84;91.46
69938;DHT22;57248;47.320;15.998;2023-09-19T01:50:19;17.81;92.69
69938;DHT22;57248;47.320;15.998;2023-09-19T01:53:06;17.81;91.18
69938;DHT22;57248;47.320;15.998;2023-09-19T01:55:43;17.80;91.72
69938;DHT22;57248;47.320;15.998;2023-09-19T02:01:34;17.73;91.33
69938;DHT22;57248;47.320;15.998;2023-09-19T02:04:09;17.81;90.88
69938;DHT22;57248;47.320;15.998;2023-09-19T02:06:35;17.77;89.14
69938;DHT22;57248;47.320;15.998;2023-09-19T02:09:12;17.83;88.22
69938;DHT22;57248;47.320;15.998;2023-09-19T02:11:44;17.75;90.47
69938;DHT22;57248;47.320;15.998;2023-09-19T02:14:16;17.74;90.01
69938;DHT22;57248;47.320;15.998;2023-09-19T02:16:48;18.06;85.14
69938;DHT22;57248;47.320;15.998;2023-09-19T02:19:22;17.95;85.83
69938;DHT22;57248;47.320;15.998;2023-09-19T02:21:54;17.84;87.12
69938;DHT22;57248;47.320;15.998;2023-09-19T02:24:26;17.84;88.43
69938;DHT22;57248;47.320;15.998;2023-09-19T02:26:58;17.83;89.48
69938;DHT22;57248;47.320;15.998;2023-09-19T02:29:33;17.84;90.25
69938;DHT22;57248;47.320;15.998;2023-09-19T02:32:08;17.90;90.53
69938;DHT22;57248;47.320;15.998;2023-09-19T02:34:43;17.83;91.07
69938;DHT22;57248;47.320;15.998;2023-09-19T02:37:16;17.91;89.49
69938;DHT22;57248;47.320;15.998;2023-09-19T02:39:50;17.94;89.35
69938;DHT22;57248;47.320;15.998;2023-09-19T02:42:22;17.91;89.48
69938;DHT22;57248;47.320;15.998;2023-09-19T02:44:54;17.85;89.80
69938;DHT22;57248;47.320;15.998;2023-09-19T02:47:28;17.81;91.40
69938;DHT22;57248;47.320;15.998;2023-09-19T02:50:09;17.83;90.53
69938;DHT22;57248;47.320;15.998;2023-09-19T02:52:46;17.75;91.29
69938;DHT22;57248;47.320;15.998;2023-09-19T02:55:21;17.66;92.01
69938;DHT22;57248;47.320;15.998;2023-09-19T02:57:54;17.77;90.08
69938;DHT22;57248;47.320;15.998;2023-09-19T03:00:26;18.00;85.76
69938;DHT22;57248;47.320;15.998;2023-09-19T03:02:58;18.09;84.34
69938;DHT22;57248;47.320;15.998;2023-09-19T03:05:32;18.25;82.21
69938;DHT22;57248;47.320;15.998;2023-09-19T03:08:06;18.28;81.25
69938;DHT22;57248;47.320;15.998;2023-09-19T03:10:38;18.31;79.66
69938;DHT22;57248;47.320;15.998;2023-09-19T03:13:10;18.26;80.36
69938;DHT22;57248;47.320;15.998;2023-09-19T03:15:43;18.31;80.28
69938;DHT22;57248;47.320;15.998;2023-09-19T03:18:26;18.24;80.77
69938;DHT22;57248;47.320;15.998;2023-09-19T03:20:58;18.21;80.92
69938;DHT22;57248;47.320;15.998;2023-09-19T03:23:33;18.29;80.46
69938;DHT22;57248;47.320;15.998;2023-09-19T03:25:59;18.21;82.27
69938;DHT22;57248;47.320;15.998;2023-09-19T03:28:33;18.18;83.14
69938;DHT22;57248;47.320;15.998;2023-09-19T03:31:06;18.09;84.75
69938;DHT22;57248;47.320;15.998;2023-09-19T03:33:38;18.08;84.74
69938;DHT22;57248;47.320;15.998;2023-09-19T03:36:10;18.05;85.64
69938;DHT22;57248;47.320;15.998;2023-09-19T03:38:45;18.01;85.99
69938;DHT22;57248;47.320;15.998;2023-09-19T03:41:17;17.98;86.59
69938;DHT22;57248;47.320;15.998;2023-09-19T03:43:50;17.90;87.25
69938;DHT22;57248;47.320;15.998;2023-09-19T03:46:22;17.83;87.93
69938;DHT22;57248;47.320;15.998;2023-09-19T03:48:54;17.74;88.44
69938;DHT22;57248;47.320;15.998;2023-09-19T03:51:29;17.77;88.36
69938;DHT22;57248;47.320;15.998;2023-09-19T03:54:09;17.77;88.26
69938;DHT22;57248;47.320;15.998;2023-09-19T03:56:41;17.69;88.83
69938;DHT22;57248;47.320;15.998;2023-09-19T03:59:08;17.70;88.56
69938;DHT22;57248;47.320;15.998;2023-09-19T04:01:48;17.64;88.42
69938;DHT22;57248;47.320;15.998;2023-09-19T04:04:21;17.60;89.33
69938;DHT22;57248;47.320;15.998;2023-09-19T04:06:56;17.71;85.17
69938;DHT22;57248;47.320;15.998;2023-09-19T04:09:28;17.75;86.62
69938;DHT22;57248;47.320;15.998;2023-09-19T04:11:54;17.66;88.90
69938;DHT22;57248;47.320;15.998;2023-09-19T04:14:25;17.90;82.20
69938;DHT22;57248;47.320;15.998;2023-09-19T04:16:57;17.78;83.97
69938;DHT22;57248;47.320;15.998;2023-09-19T04:19:30;17.87;81.44
69938;DHT22;57248;47.320;15.998;2023-09-19T04:22:04;17.78;82.34
69938;DHT22;57248;47.320;15.998;2023-09-19T04:24:29;17.70;83.98
69938;DHT22;57248;47.320;15.998;2023-09-19T04:27:04;17.67;83.68
69938;DHT22;57248;47.320;15.998;2023-09-19T04:29:36;17.50;85.80
69938;DHT22;57248;47.320;15.998;2023-09-19T04:32:09;17.43;86.97
69938;DHT22;57248;47.320;15.998;2023-09-19T04:34:41;17.45;85.31
69938;DHT22;57248;47.320;15.998;2023-09-19T04:37:13;17.39;84.91
69938;DHT22;57248;47.320;15.998;2023-09-19T04:39:46;17.39;87.14
69938;DHT22;57248;47.320;15.998;2023-09-19T04:42:18;17.25;86.71
69938;DHT22;57248;47.320;15.998;2023-09-19T04:44:51;17.27;85.61
69938;DHT22;57248;47.320;15.998;2023-09-19T04:47:18;17.43;84.38
69938;DHT22;57248;47.320;15.998;2023-09-19T04:49:51;17.56;81.92
69938;DHT22;57248;47.320;15.998;2023-09-19T04:52:23;17.53;83.08
69938;DHT22;57248;47.320;15.998;2023-09-19T04:55:02;17.36;85.09
69938;DHT22;57248;47.320;15.998;2023-09-19T04:57:37;17.33;85.54
69938;DHT22;57248;47.320;15.998;2023-09-19T05:00:15;17.25;85.82
69938;DHT22;57248;47.320;15.998;2023-09-19T05:02:52;17.32;84.15
69938;DHT22;57248;47.320;15.998;2023-09-19T05:05:24;17.33;84.14
69938;DHT22;57248;47.320;15.998;2023-09-19T05:07:57;17.40;83.03
69938;DHT22;57248;47.320;15.998;2023-09-19T05:10:24;17.35;83.91
69938;DHT22;57248;47.320;15.998;2023-09-19T05:12:56;17.37;83.17
69938;DHT22;57248;47.320;15.998;2023-09-19T05:15:28;17.42;84.02
69938;DHT22;57248;47.320;15.998;2023-09-19T05:18:00;17.39;84.52
69938;DHT22;57248;47.320;15.998;2023-09-19T05:20:33;17.37;85.47
69938;DHT22;57248;47.320;15.998;2023-09-19T05:23:08;17.35;86.47
69938;DHT22;57248;47.320;15.998;2023-09-19T05:25:40;17.30;88.77
69938;DHT22;57248;47.320;15.998;2023-09-19T05:28:12;17.18;89.24
69938;DHT22;57248;47.320;15.998;2023-09-19T05:30:46;17.19;89.26
69938;DHT22;57248;47.320;15.998;2023-09-19T05:33:20;17.20;89.43
69938;DHT22;57248;47.320;15.998;2023-09-19T05:35:47;17.27;89.32
69938;DHT22;57248;47.320;15.998;2023-09-19T05:38:19;17.19;90.64
69938;DHT22;57248;47.320;15.998;2023-09-19T05:40:45;17.26;90.27
69938;DHT22;57248;47.320;15.998;2023-09-19T05:43:18;17.15;91.43
69938;DHT22;57248;47.320;15.998;2023-09-19T05:45:50;17.37;90.26
69938;DHT22;57248;47.320;15.998;2023-09-19T05:48:28;17.40;90.57
69938;DHT22;57248;47.320;15.998;2023-09-19T05:51:07;17.50;90.73
69938;DHT22;57248;47.320;15.998;2023-09-19T05:53:39;17.62;90.59
69938;DHT22;57248;47.320;15.998;2023-09-19T05:56:19;17.75;90.01
69938;DHT22;57248;47.320;15.998;2023-09-19T05:58:52;17.75;89.93
69938;DHT22;57248;47.320;15.998;2023-09-19T06:01:24;17.71;90.79
69938;DHT22;57248;47.320;15.998;2023-09-19T06:03:58;18.70;92.62
69938;DHT22;57248;47.320;15.998;2023-09-19T06:06:32;18.16;89.45
69938;DHT22;57248;47.320;15.998;2023-09-19T06:09:08;17.81;90.02
69938;DHT22;57248;47.320;15.998;2023-09-19T06:11:43;17.83;89.62
69938;DHT22;57248;47.320;15.998;2023-09-19T06:14:09;17.69;90.07
69938;DHT22;57248;47.320;15.998;2023-09-19T06:16:41;17.59;90.83
69938;DHT22;57248;47.320;15.998;2023-09-19T06:19:13;17.57;91.11
69938;DHT22;57248;47.320;15.998;2023-09-19T06:21:46;17.59;90.71
69938;DHT22;57248;47.320;15.998;2023-09-19T06:24:18;17.59;91.49
69938;DHT22;57248;47.320;15.998;2023-09-19T06:26:50;17.57;91.44
69938;DHT22;57248;47.320;15.998;2023-09-19T06:29:24;17.57;91.91
69938;DHT22;57248;47.320;15.998;2023-09-19T06:31:56;17.67;91.30
69938;DHT22;57248;47.320;15.998;2023-09-19T06:34:28;17.84;90.67
69938;DHT22;57248;47.320;15.998;2023-09-19T06:37:00;18.01;90.08
69938;DHT22;57248;47.320;15.998;2023-09-19T06:39:40;18.24;89.30
69938;DHT22;57248;47.320;15.998;2023-09-19T06:42:13;18.56;89.15
69938;DHT22;57248;47.320;15.998;2023-09-19T06:44:45;18.73;88.33
69938;DHT22;57248;47.320;15.998;2023-09-19T06:47:17;18.80;88.18
69938;DHT22;57248;47.320;15.998;2023-09-19T06:49:58;18.90;87.66
69938;DHT22;57248;47.320;15.998;2023-09-19T06:52:30;19.23;87.14
69938;DHT22;57248;47.320;15.998;2023-09-19T06:55:10;19.24;86.48
69938;DHT22;57248;47.320;15.998;2023-09-19T06:57:39;19.39;85.75
69938;DHT22;57248;47.320;15.998;2023-09-19T07:00:14;19.45;84.62
69938;DHT22;57248;47.320;15.998;2023-09-19T07:05:35;19.81;84.44
69938;DHT22;57248;47.320;15.998;2023-09-19T07:08:10;20.14;83.53
69938;DHT22;57248;47.320;15.998;2023-09-19T07:10:44;19.82;84.13
69938;DHT22;57248;47.320;15.998;2023-09-19T07:13:25;19.97;83.73
69938;DHT22;57248;47.320;15.998;2023-09-19T07:16:00;20.13;82.24
69938;DHT22;57248;47.320;15.998;2023-09-19T07:18:33;20.22;83.47
69938;DHT22;57248;47.320;15.998;2023-09-19T07:21:05;20.36;83.06
69938;DHT22;57248;47.320;15.998;2023-09-19T07:23:38;20.17;82.94
69938;DHT22;57248;47.320;15.998;2023-09-19T07:26:10;20.13;82.94
69938;DHT22;57248;47.320;15.998;2023-09-19T07:28:45;20.34;82.66
69938;DHT22;57248;47.320;15.998;2023-09-19T07:31:16;20.47;81.47
69938;DHT22;57248;47.320;15.998;2023-09-19T07:33:49;20.26;82.28
69938;DHT22;57248;47.320;15.998;2023-09-19T07:36:20;20.51;81.32
69938;DHT22;57248;47.320;15.998;2023-09-19T07:38:53;20.58;81.78
69938;DHT22;57248;47.320;15.998;2023-09-19T07:41:26;20.99;80.48
69938;DHT22;57248;47.320;15.998;2023-09-19T07:43:52;21.16;80.34
69938;DHT22;57248;47.320;15.998;2023-09-19T07:46:24;21.26;79.05
69938;DHT22;57248;47.320;15.998;2023-09-19T07:48:59;21.57;78.64
69938;DHT22;57248;47.320;15.998;2023-09-19T07:51:38;22.11;78.39
69938;DHT22;57248;47.320;15.998;2023-09-19T07:54:12;22.12;76.77
69938;DHT22;57248;47.320;15.998;2023-09-19T07:56:44;22.07;76.89
69938;DHT22;57248;47.320;15.998;2023-09-19T07:59:19;22.05;78.10
69938;DHT22;57248;47.320;15.998;2023-09-19T08:01:51;22.24;76.88
69938;DHT22;57248;47.320;15.998;2023-09-19T08:04:23;22.22;76.95
69938;DHT22;57248;47.320;15.998;2023-09-19T08:06:57;22.21;76.35
69938;DHT22;57248;47.320;15.998;2023-09-19T08:09:31;22.75;75.76
69938;DHT22;57248;47.320;15.998;2023-09-19T08:12:08;22.92;73.85
69938;DHT22;57248;47.320;15.998;2023-09-19T08:14:41;21.80;74.33
69938;DHT22;57248;47.320;15.998;2023-09-19T08:17:15;22.82;72.76
69938;DHT22;57248;47.320;15.998;2023-09-19T08:19:46;22.89;71.85
69938;DHT22;57248;47.320;15.998;2023-09-19T08:22:20;21.97;74.71
69938;DHT22;57248;47.320;15.998;2023-09-19T08:24:51;22.68;73.08
69938;DHT22;57248;47.320;15.998;2023-09-19T08:27:24;24.15;71.73
69938;DHT22;57248;47.320;15.998;2023-09-19T08:29:59;24.91;70.21
69938;DHT22;57248;47.320;15.998;2023-09-19T08:32:31;26.34;66.90
69938;DHT22;57248;47.320;15.998;2023-09-19T08:35:05;26.06;65.99
69938;DHT22;57248;47.320;15.998;2023-09-19T08:37:37;26.04;68.16
69938;DHT22;57248;47.320;15.998;2023-09-19T08:40:09;25.92;67.71
69938;DHT22;57248;47.320;15.998;2023-09-19T08:42:52;26.00;65.22
69938;DHT22;57248;47.320;15.998;2023-09-19T08:45:25;26.91;64.34
69938;DHT22;57248;47.320;15.998;2023-09-19T08:48:13;26.85;63.78
69938;DHT22;57248;47.320;15.998;2023-09-19T08:50:56;27.07;64.07
69938;DHT22;57248;47.320;15.998;2023-09-19T08:56:26;28.90;60.27
69938;DHT22;57248;47.320;15.998;2023-09-19T08:59:02;30.54;58.07
69938;DHT22;57248;47.320;15.998;2023-09-19T09:01:35;32.45;52.18
69938;DHT22;57248;47.320;15.998;2023-09-19T09:04:10;34.67;49.01
69938;DHT22;57248;47.320;15.998;2023-09-19T09:06:46;34.00;48.44
69938;DHT22;57248;47.320;15.998;2023-09-19T09:09:26;33.30;49.55
69938;DHT22;57248;47.320;15.998;2023-09-19T09:11:59;33.97;49.68
69938;DHT22;57248;47.320;15.998;2023-09-19T09:14:31;32.90;48.32
69938;DHT22;57248;47.320;15.998;2023-09-19T09:17:05;31.77;53.07
69938;DHT22;57248;47.320;15.998;2023-09-19T09:19:38;33.92;49.13
69938;DHT22;57248;47.320;15.998;2023-09-19T09:22:12;30.37;54.30
69938;DHT22;57248;47.320;15.998;2023-09-19T09:24:54;35.31;46.78
69938;DHT22;57248;47.320;15.998;2023-09-19T09:27:31;32.18;50.61
69938;DHT22;57248;47.320;15.998;2023-09-19T09:30:07;35.49;47.93
69938;DHT22;57248;47.320;15.998;2023-09-19T09:32:41;36.87;44.50
69938;DHT22;57248;47.320;15.998;2023-09-19T09:35:12;35.88;42.27
69938;DHT22;57248;47.320;15.998;2023-09-19T09:37:46;37.74;42.61
69938;DHT22;57248;47.320;15.998;2023-09-19T09:40:19;36.87;43.15
69938;DHT22;57248;47.320;15.998;2023-09-19T09:43:25;35.52;42.41
69938;DHT22;57248;47.320;15.998;2023-09-19T09:46:17;34.59;41.62
69938;DHT22;57248;47.320;15.998;2023-09-19T09:49:03;32.61;42.73
69938;DHT22;57248;47.320;15.998;2023-09-19T09:52:07;33.50;42.12
69938;DHT22;57248;47.320;15.998;2023-09-19T09:55:01;33.34;43.26
69938;DHT22;57248;47.320;15.998;2023-09-19T09:57:36;32.87;41.86
69938;DHT22;57248;47.320;15.998;2023-09-19T10:00:11;35.51;39.79
69938;DHT22;57248;47.320;15.998;2023-09-19T10:02:50;35.04;40.53
69938;DHT22;57248;47.320;15.998;2023-09-19T10:05:22;33.34;42.74
69938;DHT22;57248;47.320;15.998;2023-09-19T10:08:10;29.59;48.13
69938;DHT22;57248;47.320;15.998;2023-09-19T10:10:45;29.65;47.94
69938;DHT22;57248;47.320;15.998;2023-09-19T10:13:28;28.33;49.93
69938;DHT22;57248;47.320;15.998;2023-09-19T10:16:06;27.55;51.56
69938;DHT22;57248;47.320;15.998;2023-09-19T10:18:42;27.80;52.70
69938;DHT22;57248;47.320;15.998;2023-09-19T10:21:16;27.73;53.06
69938;DHT22;57248;47.320;15.998;2023-09-19T10:23:54;26.83;54.70
69938;DHT22;57248;47.320;15.998;2023-09-19T10:26:30;26.04;55.16
69938;DHT22;57248;47.320;15.998;2023-09-19T10:29:06;25.85;55.17
69938;DHT22;57248;47.320;15.998;2023-09-19T10:31:39;27.34;52.63
69938;DHT22;57248;47.320;15.998;2023-09-19T10:34:20;26.62;54.50
69938;DHT22;57248;47.320;15.998;2023-09-19T10:36:53;26.54;55.15
69938;DHT22;57248;47.320;15.998;2023-09-19T10:39:29;26.44;56.28
69938;DHT22;57248;47.320;15.998;2023-09-19T10:42:05;26.74;54.65
69938;DHT22;57248;47.320;15.998;2023-09-19T10:44:38;26.91;54.26
69938;DHT22;57248;47.320;15.998;2023-09-19T10:47:14;26.98;54.54
69938;DHT22;57248;47.320;15.998;2023-09-19T10:49:52;26.71;54.28
69938;DHT22;57248;47.320;15.998;2023-09-19T10:52:27;27.57;54.17
69938;DHT22;57248;47.320;15.998;2023-09-19T10:55:07;29.20;51.94
69938;DHT22;57248;47.320;15.998;2023-09-19T10:57:44;31.78;47.48
69938;DHT22;57248;47.320;15.998;2023-09-19T11:00:17;31.54;47.58
69938;DHT22;57248;47.320;15.998;2023-09-19T11:05:42;29.71;49.81
69938;DHT22;57248;47.320;15.998;2023-09-19T11:08:16;29.85;50.18
69938;DHT22;57248;47.320;15.998;2023-09-19T11:10:49;28.93;50.96
69938;DHT22;57248;47.320;15.998;2023-09-19T11:13:27;29.03;51.46
69938;DHT22;57248;47.320;15.998;2023-09-19T11:16:05;27.09;54.78
69938;DHT22;57248;47.320;15.998;2023-09-19T11:26:44;26.79;55.51
69938;DHT22;57248;47.320;15.998;2023-09-19T11:29:32;28.39;52.58
69938;DHT22;57248;47.320;15.998;2023-09-19T11:32:04;26.88;56.40
69938;DHT22;57248;47.320;15.998;2023-09-19T11:34:44;26.78;55.86
69938;DHT22;57248;47.320;15.998;2023-09-19T11:40:06;27.54;55.94
69938;DHT22;57248;47.320;15.998;2023-09-19T11:42:47;27.07;56.03
69938;DHT22;57248;47.320;15.998;2023-09-19T11:48:23;27.00;55.54
69938;DHT22;57248;47.320;15.998;2023-09-19T11:50:57;27.26;54.89
69938;DHT22;57248;47.320;15.998;2023-09-19T11:53:38;30.88;48.94
69938;DHT22;57248;47.320;15.998;2023-09-19T11:56:10;29.04;50.90
69938;DHT22;57248;47.320;15.998;2023-09-19T11:58:54;28.62;52.45
69938;DHT22;57248;47.320;15.998;2023-09-19T12:01:33;31.23;48.19
69938;DHT22;57248;47.320;15.998;2023-09-19T12:04:08;27.80;53.55
69938;DHT22;57248;47.320;15.998;2023-09-19T12:06:41;26.34;56.85
69938;DHT22;57248;47.320;15.998;2023-09-19T12:09:15;25.82;59.79
69938;DHT22;57248;47.320;15.998;2023-09-19T12:11:49;26.30;58.29
69938;DHT22;57248;47.320;15.998;2023-09-19T12:14:25;28.15;54.48
69938;DHT22;57248;47.320;15.998;2023-09-19T12:16:58;30.24;52.95
69938;DHT22;57248;47.320;15.998;2023-09-19T12:19:31;32.49;46.19
69938;DHT22;57248;47.320;15.998;2023-09-19T12:22:07;29.10;52.70
69938;DHT22;57248;47.320;15.998;2023-09-19T12:24:40;29.61;51.17
69938;DHT22;57248;47.320;15.998;2023-09-19T12:27:16;27.14;56.00
69938;DHT22;57248;47.320;15.998;2023-09-19T12:29:48;26.55;58.51
69938;DHT22;57248;47.320;15.998;2023-09-19T12:32:34;26.79;58.54
69938;DHT22;57248;47.320;15.998;2023-09-19T12:35:08;26.43;59.19
69938;DHT22;57248;47.320;15.998;2023-09-19T12:37:54;25.66;61.03
69938;DHT22;57248;47.320;15.998;2023-09-19T12:40:29;25.86;61.97
69938;DHT22;57248;47.320;15.998;2023-09-19T12:43:05;24.98;63.81
69938;DHT22;57248;47.320;15.998;2023-09-19T12:45:37;25.25;62.93
69938;DHT22;57248;47.320;15.998;2023-09-19T12:48:25;25.79;62.21
69938;DHT22;57248;47.320;15.998;2023-09-19T12:51:08;26.10;62.41
69938;DHT22;57248;47.320;15.998;2023-09-19T12:53:43;27.06;60.45
69938;DHT22;57248;47.320;15.998;2023-09-19T12:56:18;26.68;60.90
69938;DHT22;57248;47.320;15.998;2023-09-19T12:58:55;27.51;57.78
69938;DHT22;57248;47.320;15.998;2023-09-19T13:01:29;26.86;60.18
69938;DHT22;57248;47.320;15.998;2023-09-19T13:04:11;31.57;51.48
69938;DHT22;57248;47.320;15.998;2023-09-19T13:06:51;33.34;46.54
69938;DHT22;57248;47.320;15.998;2023-09-19T13:09:23;30.54;51.68
69938;DHT22;57248;47.320;15.998;2023-09-19T13:12:35;27.73;57.53
69938;DHT22;57248;47.320;15.998;2023-09-19T13:15:15;26.33;60.24
69938;DHT22;57248;47.320;15.998;2023-09-19T13:17:51;25.93;62.76
69938;DHT22;57248;47.320;15.998;2023-09-19T13:20:26;26.78;60.33
69938;DHT22;57248;47.320;15.998;2023-09-19T13:23:03;27.30;59.21
69938;DHT22;57248;47.320;15.998;2023-09-19T13:25:41;27.57;58.67
69938;DHT22;57248;47.320;15.998;2023-09-19T13:28:13;26.69;60.92
69938;DHT22;57248;47.320;15.998;2023-09-19T13:30:45;27.68;59.83
69938;DHT22;57248;47.320;15.998;2023-09-19T13:33:18;31.59;51.76
69938;DHT22;57248;47.320;15.998;2023-09-19T13:35:54;32.65;47.59
69938;DHT22;57248;47.320;15.998;2023-09-19T13:38:26;30.14;51.82
69938;DHT22;57248;47.320;15.998;2023-09-19T13:40:58;28.60;55.45
69938;DHT22;57248;47.320;15.998;2023-09-19T13:43:34;29.06;53.12
69938;DHT22;57248;47.320;15.998;2023-09-19T13:46:05;26.58;58.50
69938;DHT22;57248;47.320;15.998;2023-09-19T13:48:40;28.05;55.61
69938;DHT22;57248;47.320;15.998;2023-09-19T13:51:18;32.05;47.85
69938;DHT22;57248;47.320;15.998;2023-09-19T13:53:50;34.78;43.05
69938;DHT22;57248;47.320;15.998;2023-09-19T13:56:23;30.65;50.79
69938;DHT22;57248;47.320;15.998;2023-09-19T13:58:57;30.82;48.75
69938;DHT22;57248;47.320;15.998;2023-09-19T14:01:30;30.45;49.18
69938;DHT22;57248;47.320;15.998;2023-09-19T14:04:01;30.31;49.79
69938;DHT22;57248;47.320;15.998;2023-09-19T14:06:35;30.43;50.21
69938;DHT22;57248;47.320;15.998;2023-09-19T14:09:09;27.60;55.34
69938;DHT22;57248;47.320;15.998;2023-09-19T14:11:44;32.29;49.26
69938;DHT22;57248;47.320;15.998;2023-09-19T14:14:20;34.02;44.28
69938;DHT22;57248;47.320;15.998;2023-09-19T14:16:51;33.16;44.22
69938;DHT22;57248;47.320;15.998;2023-09-19T14:19:24;32.39;45.86
69938;DHT22;57248;47.320;15.998;2023-09-19T14:21:56;33.26;44.84
69938;DHT22;57248;47.320;15.998;2023-09-19T14:24:30;31.84;46.38
69938;DHT22;57248;47.320;15.998;2023-09-19T14:27:02;32.74;45.80
69938;DHT22;57248;47.320;15.998;2023-09-19T14:29:36;31.00;48.47
69938;DHT22;57248;47.320;15.998;2023-09-19T14:32:08;30.74;49.42
69938;DHT22;57248;47.320;15.998;2023-09-19T14:34:39;30.02;49.72
69938;DHT22;57248;47.320;15.998;2023-09-19T14:37:15;28.86;52.10
69938;DHT22;57248;47.320;15.998;2023-09-19T14:39:52;28.18;53.40
69938;DHT22;57248;47.320;15.998;2023-09-19T14:42:24;27.76;54.40
69938;DHT22;57248;47.320;15.998;2023-09-19T14:44:56;27.63;52.92
69938;DHT22;57248;47.320;15.998;2023-09-19T14:47:30;27.23;54.29
69938;DHT22;57248;47.320;15.998;2023-09-19T14:50:04;27.95;53.97
69938;DHT22;57248;47.320;15.998;2023-09-19T14:52:39;28.06;53.55
69938;DHT22;57248;47.320;15.998;2023-09-19T14:55:20;28.16;53.77
69938;DHT22;57248;47.320;15.998;2023-09-19T14:57:51;27.47;53.74
69938;DHT22;57248;47.320;15.998;2023-09-19T15:00:25;27.23;54.76
69938;DHT22;57248;47.320;15.998;2023-09-19T15:02:56;27.27;56.42
69938;DHT22;57248;47.320;15.998;2023-09-19T15:05:30;27.29;57.20
69938;DHT22;57248;47.320;15.998;2023-09-19T15:08:03;27.24;58.45
69938;DHT22;57248;47.320;15.998;2023-09-19T15:10:35;27.16;59.81
69938;DHT22;57248;47.320;15.998;2023-09-19T15:13:07;26.55;60.98
69938;DHT22;57248;47.320;15.998;2023-09-19T15:15:41;26.43;62.38
69938;DHT22;57248;47.320;15.998;2023-09-19T15:18:14;25.43;65.94
69938;DHT22;57248;47.320;15.998;2023-09-19T15:20:44;25.76;64.88
69938;DHT22;57248;47.320;15.998;2023-09-19T15:23:16;25.75;65.92
69938;DHT22;57248;47.320;15.998;2023-09-19T15:25:51;25.58;67.23
69938;DHT22;57248;47.320;15.998;2023-09-19T15:28:24;24.90;68.76
69938;DHT22;57248;47.320;15.998;2023-09-19T15:31:06;24.55;69.91
69938;DHT22;57248;47.320;15.998;2023-09-19T15:33:39;24.32;70.42
69938;DHT22;57248;47.320;15.998;2023-09-19T15:36:19;24.50;69.85
69938;DHT22;57248;47.320;15.998;2023-09-19T15:39:04;24.60;69.40
69938;DHT22;57248;47.320;15.998;2023-09-19T15:41:46;24.68;69.27
69938;DHT22;57248;47.320;15.998;2023-09-19T15:44:23;24.97;68.36
69938;DHT22;57248;47.320;15.998;2023-09-19T15:46:58;25.17;68.13
69938;DHT22;57248;47.320;15.998;2023-09-19T15:49:31;24.88;68.37
69938;DHT22;57248;47.320;15.998;2023-09-19T15:52:09;24.76;69.18
69938;DHT22;57248;47.320;15.998;2023-09-19T15:54:42;23.82;71.49
69938;DHT22;57248;47.320;15.998;2023-09-19T15:57:17;23.75;72.34
69938;DHT22;57248;47.320;15.998;2023-09-19T15:59:49;23.40;72.41
69938;DHT22;57248;47.320;15.998;2023-09-19T16:02:21;23.37;72.33
69938;DHT22;57248;47.320;15.998;2023-09-19T16:04:56;23.53;72.59
69938;DHT22;57248;47.320;15.998;2023-09-19T16:07:22;22.92;73.34
69938;DHT22;57248;47.320;15.998;2023-09-19T16:09:54;22.96;73.97
69938;DHT22;57248;47.320;15.998;2023-09-19T16:12:26;22.51;76.40
69938;DHT22;57248;47.320;15.998;2023-09-19T16:14:59;22.68;75.37
69938;DHT22;57248;47.320;15.998;2023-09-19T16:17:31;22.58;75.41
69938;DHT22;57248;47.320;15.998;2023-09-19T16:20:03;22.45;75.74
69938;DHT22;57248;47.320;15.998;2023-09-19T16:22:36;22.08;77.53
69938;DHT22;57248;47.320;15.998;2023-09-19T16:25:08;21.91;77.57
69938;DHT22;57248;47.320;15.998;2023-09-19T16:27:43;22.08;76.94
69938;DHT22;57248;47.320;15.998;2023-09-19T16:30:15;22.29;75.71